Super Servant 4 — PJPO — position and weather

sailwx.info

Track history (hours):
 
Tides and Currents Weather Stations Pressure Air Temp Water Temp Dewpoint Dewpoint Depression Visibility Wind Speed Wind Dir Waves Ship Positions

Super Servant 4

Last reported at 2016-Aug-27 14:32 UTC. Time now 2016-Aug-27 15:07 UTC.
Position N 41°41' W 010°07'.

Length 139 m; beam 32 m.

Type: Cargo ship. MMSI: 306157000.

Date/timePositionNaut miles runAvg speedWind from/ knotsBaromVisibWave heightAir tempDewpointWater temp
2016-Aug-27 14:32N 41°41' W 010°07'1312.3
2016-Aug-27 13:26N 41°54' W 010°07'1112.0
2016-Aug-27 12:33N 42°05' W 010°07'1211.9
2016-Aug-27 11:33N 42°16' W 010°06'1111.3
2016-Aug-27 10:33N 42°28' W 010°07'1211.8
2016-Aug-27 09:32N 42°40' W 010°06'1212.1
2016-Aug-27 08:33N 42°52' W 010°06'1311.7
2016-Aug-27 07:26N 43°05' W 010°07'18911.9
2016-Aug-26 15:29N 45°55' W 008°11'7511.9
2016-Aug-26 09:10N 47°01' W 007°18'2112.2
2016-Aug-26 07:28N 47°19' W 007°03'1111.9
2016-Aug-26 06:33N 47°29' W 006°56'6512.2
2016-Aug-26 01:14N 48°26' W 006°10'2112.1
2016-Aug-25 23:33N 48°44' W 005°56'1211.5
2016-Aug-25 22:31N 48°55' W 005°47'1410.8
2016-Aug-25 21:12N 49°02' W 005°28'810.7
2016-Aug-25 20:27N 49°06' W 005°17'1010.8
2016-Aug-25 19:30N 49°11' W 005°04'1311.4
2016-Aug-25 18:22N 49°18' W 004°47'1112.2
2016-Aug-25 17:28N 49°24' W 004°33'1212.6
2016-Aug-25 16:32N 49°30' W 004°17'1212.7
2016-Aug-25 15:33N 49°36' W 004°01'1212.5
2016-Aug-25 14:33N 49°42' W 003°44'1211.7
2016-Aug-25 13:30N 49°49' W 003°28'1011.0
2016-Aug-25 12:33N 49°54' W 003°14'1110.7
2016-Aug-25 11:33N 49°59' W 002°60'1111.0
2016-Aug-25 10:33N 50°02' W 002°43'1211.6
2016-Aug-25 09:33N 50°05' W 002°26'1312.9
2016-Aug-25 08:33N 50°09' W 002°06'1414.2
2016-Aug-25 07:33N 50°14' W 001°45'1514.9
2016-Aug-25 06:31N 50°18' W 001°22'2814.4
2016-Aug-25 04:33N 50°25' W 000°39'1312.3
2016-Aug-25 03:30N 50°28' W 000°19'1111.3
2016-Aug-25 02:33N 50°31' W 000°03'1010.5
2016-Aug-25 01:33N 50°34' E 000°13'1110.6
2016-Aug-25 00:33N 50°37' E 000°29'1211.7
2016-Aug-24 23:33N 50°42' E 000°45'1613.4
2016-Aug-24 22:20N 50°52' E 001°06'1113.7
2016-Aug-24 21:33N 50°59' E 001°19'1312.9
2016-Aug-24 20:33N 51°07' E 001°34'1111.4
2016-Aug-24 19:33N 51°15' E 001°48'1110.8
2016-Aug-24 18:33N 51°23' E 001°58'1010.1
2016-Aug-24 17:33N 51°21' E 002°14'1110.5
2016-Aug-24 16:33N 51°23' E 002°30'1110.9
2016-Aug-24 15:33N 51°22' E 002°48'1110.8
2016-Aug-24 14:33N 51°24' E 003°05'1111.1
2016-Aug-24 13:33N 51°25' E 003°22'1111.2
2016-Aug-24 12:34N 51°27' E 003°40'1 0.5
2016-Aug-24 11:33N 51°27' E 003°40'0 0.0
2016-Aug-24 10:33N 51°27' E 003°40'0 0.0
2016-Aug-24 09:33N 51°27' E 003°40'0 0.0
2016-Aug-24 08:33N 51°27' E 003°40'0 0.0
2016-Aug-24 07:33N 51°27' E 003°40'0 0.0
2016-Aug-24 06:33N 51°27' E 003°40'0 0.0
2016-Aug-24 04:33N 51°27' E 003°40'0 0.0
2016-Aug-24 03:33N 51°27' E 003°40'0 0.0
2016-Aug-24 02:33N 51°27' E 003°40'0 0.0
2016-Aug-24 01:33N 51°27' E 003°40'0 0.0
2016-Aug-24 00:33N 51°27' E 003°40'0 0.0
2016-Aug-23 23:33N 51°27' E 003°40'0 0.0
2016-Aug-23 22:33N 51°27' E 003°40'0 0.0
2016-Aug-23 21:33N 51°27' E 003°40'0 0.0
2016-Aug-23 20:33N 51°27' E 003°40'0 0.0
2016-Aug-23 19:33N 51°27' E 003°40'2 2.2
2016-Aug-23 18:33N 51°26' E 003°37'1010.2
2016-Aug-23 17:33N 51°24' E 003°21'1312.6
2016-Aug-23 16:33N 51°24' E 003°01'1212.2
2016-Aug-23 15:33N 51°22' E 002°42'1212.3
2016-Aug-23 14:33N 51°19' E 002°22'1212.5
2016-Aug-23 13:33N 51°13' E 002°05'1111.0
2016-Aug-23 12:33N 51°07' E 001°50'10 9.7
2016-Aug-23 11:33N 51°01' E 001°39'9 8.8
2016-Aug-23 10:33N 50°54' E 001°30'10 9.0
2016-Aug-23 09:26N 50°45' E 001°23'12 9.8
2016-Aug-23 08:15N 50°36' E 001°12'1810.5
2016-Aug-23 06:33N 50°26' E 000°49'1110.8
2016-Aug-23 05:33N 50°23' E 000°32'1110.7
2016-Aug-23 04:33N 50°20' E 000°17'1010.4
2016-Aug-23 03:33N 50°15' E 000°02'1212.3
2016-Aug-23 02:33N 50°03' W 000°00'1212.5
2016-Aug-23 01:33N 49°51' W 000°00'1312.6
2016-Aug-23 00:33N 49°38' W 000°03'1110.6
2016-Aug-22 23:33N 49°29' E 000°06'3 2.9
2016-Aug-22 22:32N 49°28' E 000°10'0 0.0
2016-Aug-22 21:32N 49°28' E 000°10'0 0.0
2016-Aug-22 20:32N 49°28' E 000°10'0 0.0
2016-Aug-22 19:32N 49°28' E 000°10'0 0.0
2016-Aug-22 18:32N 49°28' E 000°10'0 0.0
2016-Aug-22 17:32N 49°28' E 000°10'0 0.0
2016-Aug-22 16:32N 49°28' E 000°10'0 0.0
2016-Aug-22 15:32N 49°28' E 000°10'0 0.0
2016-Aug-22 14:32N 49°28' E 000°10'0 0.0
2016-Aug-22 13:32N 49°28' E 000°10'0 0.0
2016-Aug-22 12:32N 49°28' E 000°10'0 0.0
2016-Aug-22 11:32N 49°28' E 000°10'0 0.0
2016-Aug-22 10:32N 49°28' E 000°10'2 1.8
2016-Aug-22 09:33N 49°28' E 000°07'1010.5
2016-Aug-22 08:33N 49°32' W 000°08'1211.8
2016-Aug-22 07:33N 49°35' W 000°25'1211.6
2016-Aug-22 06:33N 49°40' W 000°42'1010.5
2016-Aug-22 05:33N 49°44' W 000°57'9 9.3
2016-Aug-22 04:33N 49°48' W 001°10'8 7.8
2016-Aug-22 03:33N 49°51' W 001°21'9 8.7
2016-Aug-22 02:33N 49°54' W 001°34'1110.6
2016-Aug-22 01:33N 49°55' W 001°50'1313.1
2016-Aug-22 00:34N 49°55' W 002°10'1414.3
2016-Aug-21 23:33N 49°52' W 002°32'1414.4
2016-Aug-21 22:33N 49°48' W 002°53'1414.3
2016-Aug-21 21:33N 49°41' W 003°12'1414.4
2016-Aug-21 20:33N 49°34' W 003°32'1514.6
2016-Aug-21 19:34N 49°26' W 003°51'1514.8
2016-Aug-21 18:33N 49°19' W 004°11'1414.5
2016-Aug-21 17:33N 49°11' W 004°30'1414.1
2016-Aug-21 16:33N 49°04' W 004°49'1313.4
2016-Aug-21 15:32N 48°58' W 005°07'1212.5
2016-Aug-21 14:33N 48°52' W 005°23'1111.3
2016-Aug-21 13:33N 48°46' W 005°38'  
2016-Aug-19 05:32N 39°16' W 009°50'1412.8
2016-Aug-19 04:29N 39°02' W 009°51'1212.7
2016-Aug-19 03:32N 38°50' W 009°51'1313.0
2016-Aug-19 02:33N 38°37' W 009°50'1312.7
2016-Aug-19 01:33N 38°25' W 009°46'1212.1
2016-Aug-19 00:34N 38°13' W 009°43'1212.2
2016-Aug-18 23:33N 38°01' W 009°40'1212.2
2016-Aug-18 22:34N 37°49' W 009°37'1212.0
2016-Aug-18 21:33N 37°38' W 009°34'1110.7
2016-Aug-18 20:34N 37°28' W 009°29'1211.7
2016-Aug-18 19:33N 37°16' W 009°26'1211.7
2016-Aug-18 18:33N 37°05' W 009°23'1311.6
2016-Aug-18 17:26N 36°52' W 009°18'1011.5
2016-Aug-18 16:34N 36°45' W 009°10'1211.5
2016-Aug-18 15:33N 36°41' W 008°56'1111.4
2016-Aug-18 14:33N 36°38' W 008°43'1211.1
2016-Aug-18 13:29N 36°34' W 008°29'1111.6
2016-Aug-18 12:33N 36°31' W 008°16'1212.0
2016-Aug-18 11:33N 36°26' W 008°02'2512.5
2016-Aug-18 09:32N 36°18' W 007°32'1912.9
2016-Aug-18 08:05N 36°12' W 007°10'1213.0
2016-Aug-18 07:11N 36°09' W 006°56'812.9
2016-Aug-18 06:33N 36°06' W 006°47'5011.4
2016-Aug-18 02:10N 35°57' W 005°46'711.3
2016-Aug-18 01:32N 35°57' W 005°37'1010.6
2016-Aug-18 00:33N 36°00' W 005°25'1010.5
2016-Aug-17 23:33N 36°02' W 005°12'9111.0
2016-Aug-17 15:18N 36°16' W 003°21'  
Track history (hours):
 
Tides and Currents Weather Stations Pressure Air Temp Water Temp Dewpoint Dewpoint Depression Visibility Wind Speed Wind Dir Waves Ship Positions

Super Servant 4

Last reported at 2016-Aug-27 14:32 UTC. Time now 2016-Aug-27 15:07 UTC.
Position N 41°41' W 010°07'.

Length 139 m; beam 32 m.

Type: Cargo ship. MMSI: 306157000.

Date/timePositionNaut miles runAvg speedWind from/ knotsBaromVisibWave heightAir tempDewpointWater temp
2016-Aug-27 14:32N 41°41' W 010°07'1312.3
2016-Aug-27 13:26N 41°54' W 010°07'1112.0
2016-Aug-27 12:33N 42°05' W 010°07'1211.9
2016-Aug-27 11:33N 42°16' W 010°06'1111.3
2016-Aug-27 10:33N 42°28' W 010°07'1211.8
2016-Aug-27 09:32N 42°40' W 010°06'1212.1
2016-Aug-27 08:33N 42°52' W 010°06'1311.7
2016-Aug-27 07:26N 43°05' W 010°07'18911.9
2016-Aug-26 15:29N 45°55' W 008°11'7511.9
2016-Aug-26 09:10N 47°01' W 007°18'2112.2
2016-Aug-26 07:28N 47°19' W 007°03'1111.9
2016-Aug-26 06:33N 47°29' W 006°56'6512.2
2016-Aug-26 01:14N 48°26' W 006°10'2112.1
2016-Aug-25 23:33N 48°44' W 005°56'1211.5
2016-Aug-25 22:31N 48°55' W 005°47'1410.8
2016-Aug-25 21:12N 49°02' W 005°28'810.7
2016-Aug-25 20:27N 49°06' W 005°17'1010.8
2016-Aug-25 19:30N 49°11' W 005°04'1311.4
2016-Aug-25 18:22N 49°18' W 004°47'1112.2
2016-Aug-25 17:28N 49°24' W 004°33'1212.6
2016-Aug-25 16:32N 49°30' W 004°17'1212.7
2016-Aug-25 15:33N 49°36' W 004°01'1212.5
2016-Aug-25 14:33N 49°42' W 003°44'1211.7
2016-Aug-25 13:30N 49°49' W 003°28'1011.0
2016-Aug-25 12:33N 49°54' W 003°14'1110.7
2016-Aug-25 11:33N 49°59' W 002°60'1111.0
2016-Aug-25 10:33N 50°02' W 002°43'1211.6
2016-Aug-25 09:33N 50°05' W 002°26'1312.9
2016-Aug-25 08:33N 50°09' W 002°06'1414.2
2016-Aug-25 07:33N 50°14' W 001°45'1514.9
2016-Aug-25 06:31N 50°18' W 001°22'2814.4
2016-Aug-25 04:33N 50°25' W 000°39'1312.3
2016-Aug-25 03:30N 50°28' W 000°19'1111.3
2016-Aug-25 02:33N 50°31' W 000°03'1010.5
2016-Aug-25 01:33N 50°34' E 000°13'1110.6
2016-Aug-25 00:33N 50°37' E 000°29'1211.7
2016-Aug-24 23:33N 50°42' E 000°45'1613.4
2016-Aug-24 22:20N 50°52' E 001°06'1113.7
2016-Aug-24 21:33N 50°59' E 001°19'1312.9
2016-Aug-24 20:33N 51°07' E 001°34'1111.4
2016-Aug-24 19:33N 51°15' E 001°48'1110.8
2016-Aug-24 18:33N 51°23' E 001°58'1010.1
2016-Aug-24 17:33N 51°21' E 002°14'1110.5
2016-Aug-24 16:33N 51°23' E 002°30'1110.9
2016-Aug-24 15:33N 51°22' E 002°48'1110.8
2016-Aug-24 14:33N 51°24' E 003°05'1111.1
2016-Aug-24 13:33N 51°25' E 003°22'1111.2
2016-Aug-24 12:34N 51°27' E 003°40'1 0.5
2016-Aug-24 11:33N 51°27' E 003°40'0 0.0
2016-Aug-24 10:33N 51°27' E 003°40'0 0.0
2016-Aug-24 09:33N 51°27' E 003°40'0 0.0
2016-Aug-24 08:33N 51°27' E 003°40'0 0.0
2016-Aug-24 07:33N 51°27' E 003°40'0 0.0
2016-Aug-24 06:33N 51°27' E 003°40'0 0.0
2016-Aug-24 04:33N 51°27' E 003°40'0 0.0
2016-Aug-24 03:33N 51°27' E 003°40'0 0.0
2016-Aug-24 02:33N 51°27' E 003°40'0 0.0
2016-Aug-24 01:33N 51°27' E 003°40'0 0.0
2016-Aug-24 00:33N 51°27' E 003°40'0 0.0
2016-Aug-23 23:33N 51°27' E 003°40'0 0.0
2016-Aug-23 22:33N 51°27' E 003°40'0 0.0
2016-Aug-23 21:33N 51°27' E 003°40'0 0.0
2016-Aug-23 20:33N 51°27' E 003°40'0 0.0
2016-Aug-23 19:33N 51°27' E 003°40'2 2.2
2016-Aug-23 18:33N 51°26' E 003°37'1010.2
2016-Aug-23 17:33N 51°24' E 003°21'1312.6
2016-Aug-23 16:33N 51°24' E 003°01'1212.2
2016-Aug-23 15:33N 51°22' E 002°42'1212.3
2016-Aug-23 14:33N 51°19' E 002°22'1212.5
2016-Aug-23 13:33N 51°13' E 002°05'1111.0
2016-Aug-23 12:33N 51°07' E 001°50'10 9.7
2016-Aug-23 11:33N 51°01' E 001°39'9 8.8
2016-Aug-23 10:33N 50°54' E 001°30'10 9.0
2016-Aug-23 09:26N 50°45' E 001°23'12 9.8
2016-Aug-23 08:15N 50°36' E 001°12'1810.5
2016-Aug-23 06:33N 50°26' E 000°49'1110.8
2016-Aug-23 05:33N 50°23' E 000°32'1110.7
2016-Aug-23 04:33N 50°20' E 000°17'1010.4
2016-Aug-23 03:33N 50°15' E 000°02'1212.3
2016-Aug-23 02:33N 50°03' W 000°00'1212.5
2016-Aug-23 01:33N 49°51' W 000°00'1312.6
2016-Aug-23 00:33N 49°38' W 000°03'1110.6
2016-Aug-22 23:33N 49°29' E 000°06'3 2.9
2016-Aug-22 22:32N 49°28' E 000°10'0 0.0
2016-Aug-22 21:32N 49°28' E 000°10'0 0.0
2016-Aug-22 20:32N 49°28' E 000°10'0 0.0
2016-Aug-22 19:32N 49°28' E 000°10'0 0.0
2016-Aug-22 18:32N 49°28' E 000°10'0 0.0
2016-Aug-22 17:32N 49°28' E 000°10'0 0.0
2016-Aug-22 16:32N 49°28' E 000°10'0 0.0
2016-Aug-22 15:32N 49°28' E 000°10'0 0.0
2016-Aug-22 14:32N 49°28' E 000°10'0 0.0
2016-Aug-22 13:32N 49°28' E 000°10'0 0.0
2016-Aug-22 12:32N 49°28' E 000°10'0 0.0
2016-Aug-22 11:32N 49°28' E 000°10'0 0.0
2016-Aug-22 10:32N 49°28' E 000°10'2 1.8
2016-Aug-22 09:33N 49°28' E 000°07'1010.5
2016-Aug-22 08:33N 49°32' W 000°08'1211.8
2016-Aug-22 07:33N 49°35' W 000°25'1211.6
2016-Aug-22 06:33N 49°40' W 000°42'1010.5
2016-Aug-22 05:33N 49°44' W 000°57'9 9.3
2016-Aug-22 04:33N 49°48' W 001°10'8 7.8
2016-Aug-22 03:33N 49°51' W 001°21'9 8.7
2016-Aug-22 02:33N 49°54' W 001°34'1110.6
2016-Aug-22 01:33N 49°55' W 001°50'1313.1
2016-Aug-22 00:34N 49°55' W 002°10'1414.3
2016-Aug-21 23:33N 49°52' W 002°32'1414.4
2016-Aug-21 22:33N 49°48' W 002°53'1414.3
2016-Aug-21 21:33N 49°41' W 003°12'1414.4
2016-Aug-21 20:33N 49°34' W 003°32'1514.6
2016-Aug-21 19:34N 49°26' W 003°51'1514.8
2016-Aug-21 18:33N 49°19' W 004°11'1414.5
2016-Aug-21 17:33N 49°11' W 004°30'1414.1
2016-Aug-21 16:33N 49°04' W 004°49'1313.4
2016-Aug-21 15:32N 48°58' W 005°07'1212.5
2016-Aug-21 14:33N 48°52' W 005°23'1111.3
2016-Aug-21 13:33N 48°46' W 005°38'  
2016-Aug-19 05:32N 39°16' W 009°50'1412.8
2016-Aug-19 04:29N 39°02' W 009°51'1212.7
2016-Aug-19 03:32N 38°50' W 009°51'1313.0
2016-Aug-19 02:33N 38°37' W 009°50'1312.7
2016-Aug-19 01:33N 38°25' W 009°46'1212.1
2016-Aug-19 00:34N 38°13' W 009°43'1212.2
2016-Aug-18 23:33N 38°01' W 009°40'1212.2
2016-Aug-18 22:34N 37°49' W 009°37'1212.0
2016-Aug-18 21:33N 37°38' W 009°34'1110.7
2016-Aug-18 20:34N 37°28' W 009°29'1211.7
2016-Aug-18 19:33N 37°16' W 009°26'1211.7
2016-Aug-18 18:33N 37°05' W 009°23'1311.6
2016-Aug-18 17:26N 36°52' W 009°18'1011.5
2016-Aug-18 16:34N 36°45' W 009°10'1211.5
2016-Aug-18 15:33N 36°41' W 008°56'1111.4
2016-Aug-18 14:33N 36°38' W 008°43'1211.1
2016-Aug-18 13:29N 36°34' W 008°29'1111.6
2016-Aug-18 12:33N 36°31' W 008°16'1212.0
2016-Aug-18 11:33N 36°26' W 008°02'2512.5
2016-Aug-18 09:32N 36°18' W 007°32'1912.9
2016-Aug-18 08:05N 36°12' W 007°10'1213.0
2016-Aug-18 07:11N 36°09' W 006°56'812.9
2016-Aug-18 06:33N 36°06' W 006°47'5011.4
2016-Aug-18 02:10N 35°57' W 005°46'711.3
2016-Aug-18 01:32N 35°57' W 005°37'1010.6
2016-Aug-18 00:33N 36°00' W 005°25'1010.5
2016-Aug-17 23:33N 36°02' W 005°12'9111.0
2016-Aug-17 15:18N 36°16' W 003°21'  

Dump ship's entire track history